Аэропорт: Белгород . Белгород

ICAO: UUOB

METAR:
2018/07/22 20:00
UUOB 222000Z 06004MPS 9999 BKN040CB 19/19 Q1004 R29/290055 NOSIG
METAR:
Информация по данной станции не доступна